Olsburg, Kansas
Current Conditions -  °F | °C
As of 7:52 AM on Monday 22 Dec 2014 (Local Time) from KMHK Reporting Station
Light Rain Light Rain  
Wind Chill: 40°   Ceiling: 700
Heat Index: 44°   Visibility: 8mi
Dew Point: 43°   Wind: 7mph
Humidity: 96%   Direction: 200°SSW
Pressure: 29.54"   Gusts: NA
Location:  39.43°N, 96.62°W
Report Text: KMHK 221352Z 20006KT 8SM -RA OVC007 07/06 A2954 RMK AO2 SLP006 P0002 T00670061
Loading
Personal Weather Stations






























Interactive Weather Map New forecast layout! Learn more

10-Day Weather Forecast

Advertisements
Track Severe Weather on mobile